Cherry Point Marine Corps Ai, North Carolina
Current Conditions -  °F | °C
As of 2:54 AM on Monday 24 Nov 2014 (Local Time) from KNKT Reporting Station
Overcast Overcast  
Wind Chill: 21°   Ceiling: 800
Heat Index: 21°   Visibility: 8mi
Dew Point: 19°   Wind: 15mph
Humidity: 90%   Direction: 160°SSE
Pressure: 29.84"   Gusts: 22mph
Location:  34.8973°N, 76.9091°W
Report Text: KNKT 240754Z 16013G19KT 8SM BKN008 OVC023 21/19 A2984 RMK AO2 PK WND 14029/0702 RAE22 CIG 006V014 SLP102 P0002 T02110194 $
Loading
Personal Weather Stations






























Interactive Weather Map New forecast layout! Learn more

10-Day Weather Forecast

Advertisements
Track Severe Weather on mobile